sensor_id;sensor_type;location;lat;lon;timestamp;P1;durP1;ratioP1;P2;durP2;ratioP2
26223;SDS011;14820;48.682;8.890;2022-09-09T00:02:20;1.90;;;1.00;;
26223;SDS011;14820;48.682;8.890;2022-09-09T00:04:58;3.33;;;1.10;;
26223;SDS011;14820;48.682;8.890;2022-09-09T00:15:40;3.83;;;1.27;;
26223;SDS011;14820;48.682;8.890;2022-09-09T00:18:27;2.47;;;1.30;;
26223;SDS011;14820;48.682;8.890;2022-09-09T00:20:57;6.20;;;1.48;;
26223;SDS011;14820;48.682;8.890;2022-09-09T00:23:32;4.70;;;1.30;;
26223;SDS011;14820;48.682;8.890;2022-09-09T00:28:44;3.33;;;1.10;;
26223;SDS011;14820;48.682;8.890;2022-09-09T00:31:23;3.78;;;1.05;;
26223;SDS011;14820;48.682;8.890;2022-09-09T00:33:53;2.33;;;0.93;;
26223;SDS011;14820;48.682;8.890;2022-09-09T00:36:21;3.90;;;1.30;;
26223;SDS011;14820;48.682;8.890;2022-09-09T00:38:52;2.25;;;1.13;;
26223;SDS011;14820;48.682;8.890;2022-09-09T00:43:57;5.13;;;1.27;;
26223;SDS011;14820;48.682;8.890;2022-09-09T00:49:19;3.38;;;1.20;;
26223;SDS011;14820;48.682;8.890;2022-09-09T00:51:56;6.53;;;1.10;;
26223;SDS011;14820;48.682;8.890;2022-09-09T01:02:53;2.92;;;1.02;;
26223;SDS011;14820;48.682;8.890;2022-09-09T01:11:01;2.40;;;1.13;;
26223;SDS011;14820;48.682;8.890;2022-09-09T01:13:31;5.50;;;1.30;;
26223;SDS011;14820;48.682;8.890;2022-09-09T01:16:00;2.00;;;1.05;;
26223;SDS011;14820;48.682;8.890;2022-09-09T01:18:28;5.32;;;1.27;;
26223;SDS011;14820;48.682;8.890;2022-09-09T01:27:08;4.97;;;1.30;;
26223;SDS011;14820;48.682;8.890;2022-09-09T01:29:35;2.63;;;1.10;;
26223;SDS011;14820;48.682;8.890;2022-09-09T01:38:07;2.80;;;1.10;;
26223;SDS011;14820;48.682;8.890;2022-09-09T01:40:33;5.43;;;1.38;;
26223;SDS011;14820;48.682;8.890;2022-09-09T01:42:59;2.25;;;1.05;;
26223;SDS011;14820;48.682;8.890;2022-09-09T01:45:25;2.92;;;1.27;;
26223;SDS011;14820;48.682;8.890;2022-09-09T01:47:51;3.05;;;1.20;;
26223;SDS011;14820;48.682;8.890;2022-09-09T01:50:18;3.10;;;1.10;;
26223;SDS011;14820;48.682;8.890;2022-09-09T01:52:46;3.55;;;0.88;;
26223;SDS011;14820;48.682;8.890;2022-09-09T01:55:15;3.78;;;1.17;;
26223;SDS011;14820;48.682;8.890;2022-09-09T02:00:34;5.43;;;1.30;;
26223;SDS011;14820;48.682;8.890;2022-09-09T02:03:05;4.25;;;1.00;;
26223;SDS011;14820;48.682;8.890;2022-09-09T02:11:12;2.63;;;1.10;;
26223;SDS011;14820;48.682;8.890;2022-09-09T02:13:40;3.45;;;1.02;;
26223;SDS011;14820;48.682;8.890;2022-09-09T02:16:08;3.22;;;1.20;;
26223;SDS011;14820;48.682;8.890;2022-09-09T02:21:12;2.67;;;0.80;;
26223;SDS011;14820;48.682;8.890;2022-09-09T02:23:39;3.65;;;1.10;;
26223;SDS011;14820;48.682;8.890;2022-09-09T02:26:07;2.35;;;0.80;;
26223;SDS011;14820;48.682;8.890;2022-09-09T02:28:35;5.10;;;1.10;;
26223;SDS011;14820;48.682;8.890;2022-09-09T02:31:03;5.45;;;1.13;;
26223;SDS011;14820;48.682;8.890;2022-09-09T02:33:32;2.97;;;1.20;;
26223;SDS011;14820;48.682;8.890;2022-09-09T02:36:02;1.23;;;0.93;;
26223;SDS011;14820;48.682;8.890;2022-09-09T02:38:32;3.28;;;0.88;;
26223;SDS011;14820;48.682;8.890;2022-09-09T02:41:02;2.78;;;0.90;;
26223;SDS011;14820;48.682;8.890;2022-09-09T02:43:32;3.15;;;0.98;;
26223;SDS011;14820;48.682;8.890;2022-09-09T02:49:04;1.88;;;1.10;;
26223;SDS011;14820;48.682;8.890;2022-09-09T02:51:45;6.65;;;1.02;;
26223;SDS011;14820;48.682;8.890;2022-09-09T02:54:28;3.08;;;0.90;;
26223;SDS011;14820;48.682;8.890;2022-09-09T02:57:06;2.50;;;0.80;;
26223;SDS011;14820;48.682;8.890;2022-09-09T02:59:38;1.17;;;0.80;;
26223;SDS011;14820;48.682;8.890;2022-09-09T03:02:05;2.08;;;1.13;;
26223;SDS011;14820;48.682;8.890;2022-09-09T03:04:31;3.13;;;1.00;;
26223;SDS011;14820;48.682;8.890;2022-09-09T03:06:57;3.30;;;1.08;;
26223;SDS011;14820;48.682;8.890;2022-09-09T03:09:23;1.90;;;0.90;;
26223;SDS011;14820;48.682;8.890;2022-09-09T03:11:50;2.03;;;0.85;;
26223;SDS011;14820;48.682;8.890;2022-09-09T03:14:17;1.70;;;1.00;;
26223;SDS011;14820;48.682;8.890;2022-09-09T03:16:46;1.70;;;0.88;;
26223;SDS011;14820;48.682;8.890;2022-09-09T03:19:12;3.53;;;0.95;;
26223;SDS011;14820;48.682;8.890;2022-09-09T03:21:38;2.30;;;0.90;;
26223;SDS011;14820;48.682;8.890;2022-09-09T03:24:04;4.60;;;1.00;;
26223;SDS011;14820;48.682;8.890;2022-09-09T03:26:30;3.25;;;1.20;;
26223;SDS011;14820;48.682;8.890;2022-09-09T03:28:56;2.95;;;1.20;;
26223;SDS011;14820;48.682;8.890;2022-09-09T03:31:22;3.35;;;1.00;;
26223;SDS011;14820;48.682;8.890;2022-09-09T03:33:48;1.70;;;0.80;;
26223;SDS011;14820;48.682;8.890;2022-09-09T03:36:14;3.55;;;1.00;;
26223;SDS011;14820;48.682;8.890;2022-09-09T03:38:40;2.95;;;0.88;;
26223;SDS011;14820;48.682;8.890;2022-09-09T03:41:06;4.28;;;0.80;;
26223;SDS011;14820;48.682;8.890;2022-09-09T03:43:33;5.60;;;0.90;;
26223;SDS011;14820;48.682;8.890;2022-09-09T03:45:59;1.70;;;1.00;;
26223;SDS011;14820;48.682;8.890;2022-09-09T03:48:25;3.15;;;1.40;;
26223;SDS011;14820;48.682;8.890;2022-09-09T03:50:53;2.50;;;1.10;;
26223;SDS011;14820;48.682;8.890;2022-09-09T03:53:21;2.65;;;0.80;;
26223;SDS011;14820;48.682;8.890;2022-09-09T03:55:50;5.35;;;0.90;;
26223;SDS011;14820;48.682;8.890;2022-09-09T03:58:19;2.00;;;0.73;;
26223;SDS011;14820;48.682;8.890;2022-09-09T04:00:59;1.75;;;0.73;;
26223;SDS011;14820;48.682;8.890;2022-09-09T04:03:27;2.22;;;0.90;;
26223;SDS011;14820;48.682;8.890;2022-09-09T04:05:53;2.28;;;0.98;;
26223;SDS011;14820;48.682;8.890;2022-09-09T04:08:20;3.13;;;0.77;;
26223;SDS011;14820;48.682;8.890;2022-09-09T04:10:47;2.60;;;1.00;;
26223;SDS011;14820;48.682;8.890;2022-09-09T04:13:15;2.17;;;0.80;;
26223;SDS011;14820;48.682;8.890;2022-09-09T04:15:42;1.88;;;0.68;;
26223;SDS011;14820;48.682;8.890;2022-09-09T04:18:10;2.53;;;0.90;;
26223;SDS011;14820;48.682;8.890;2022-09-09T04:20:37;1.55;;;0.80;;
26223;SDS011;14820;48.682;8.890;2022-09-09T04:23:03;3.40;;;1.10;;
26223;SDS011;14820;48.682;8.890;2022-09-09T04:25:30;1.73;;;0.70;;
26223;SDS011;14820;48.682;8.890;2022-09-09T04:27:56;1.15;;;0.70;;
26223;SDS011;14820;48.682;8.890;2022-09-09T04:30:23;3.60;;;0.90;;
26223;SDS011;14820;48.682;8.890;2022-09-09T04:32:49;1.88;;;1.00;;
26223;SDS011;14820;48.682;8.890;2022-09-09T04:35:15;4.03;;;1.05;;
26223;SDS011;14820;48.682;8.890;2022-09-09T04:37:41;2.33;;;1.00;;
26223;SDS011;14820;48.682;8.890;2022-09-09T04:40:07;2.95;;;1.10;;
26223;SDS011;14820;48.682;8.890;2022-09-09T04:42:37;2.75;;;0.98;;
26223;SDS011;14820;48.682;8.890;2022-09-09T04:45:04;2.38;;;0.93;;
26223;SDS011;14820;48.682;8.890;2022-09-09T04:47:31;2.40;;;1.00;;
26223;SDS011;14820;48.682;8.890;2022-09-09T04:50:00;3.25;;;1.00;;
26223;SDS011;14820;48.682;8.890;2022-09-09T04:52:26;3.92;;;1.20;;
26223;SDS011;14820;48.682;8.890;2022-09-09T04:54:53;2.80;;;1.00;;
26223;SDS011;14820;48.682;8.890;2022-09-09T04:57:19;3.45;;;1.10;;
26223;SDS011;14820;48.682;8.890;2022-09-09T04:59:45;3.40;;;1.27;;
26223;SDS011;14820;48.682;8.890;2022-09-09T05:02:11;2.50;;;0.98;;
26223;SDS011;14820;48.682;8.890;2022-09-09T05:04:36;2.90;;;1.15;;
26223;SDS011;14820;48.682;8.890;2022-09-09T05:07:02;2.67;;;1.15;;
26223;SDS011;14820;48.682;8.890;2022-09-09T05:09:28;2.10;;;1.10;;
26223;SDS011;14820;48.682;8.890;2022-09-09T05:11:54;2.53;;;1.20;;
26223;SDS011;14820;48.682;8.890;2022-09-09T05:14:19;3.92;;;1.13;;
26223;SDS011;14820;48.682;8.890;2022-09-09T05:16:45;2.60;;;1.17;;
26223;SDS011;14820;48.682;8.890;2022-09-09T05:19:12;4.18;;;1.08;;
26223;SDS011;14820;48.682;8.890;2022-09-09T05:21:37;3.60;;;1.15;;
26223;SDS011;14820;48.682;8.890;2022-09-09T05:24:03;2.92;;;1.40;;
26223;SDS011;14820;48.682;8.890;2022-09-09T05:26:29;2.53;;;1.20;;
26223;SDS011;14820;48.682;8.890;2022-09-09T05:28:56;2.08;;;1.30;;
26223;SDS011;14820;48.682;8.890;2022-09-09T05:31:24;2.22;;;1.15;;
26223;SDS011;14820;48.682;8.890;2022-09-09T05:33:53;4.25;;;1.20;;
26223;SDS011;14820;48.682;8.890;2022-09-09T05:36:19;3.08;;;1.58;;
26223;SDS011;14820;48.682;8.890;2022-09-09T05:38:46;2.03;;;1.30;;
26223;SDS011;14820;48.682;8.890;2022-09-09T05:41:13;4.45;;;1.20;;
26223;SDS011;14820;48.682;8.890;2022-09-09T05:43:42;3.65;;;1.42;;
26223;SDS011;14820;48.682;8.890;2022-09-09T05:46:19;3.85;;;1.35;;
26223;SDS011;14820;48.682;8.890;2022-09-09T05:48:47;2.60;;;1.13;;
26223;SDS011;14820;48.682;8.890;2022-09-09T05:51:17;2.58;;;1.10;;
26223;SDS011;14820;48.682;8.890;2022-09-09T05:53:46;3.45;;;1.13;;
26223;SDS011;14820;48.682;8.890;2022-09-09T05:56:14;2.97;;;1.10;;
26223;SDS011;14820;48.682;8.890;2022-09-09T05:58:42;6.00;;;1.10;;
26223;SDS011;14820;48.682;8.890;2022-09-09T06:01:15;3.60;;;1.15;;
26223;SDS011;14820;48.682;8.890;2022-09-09T06:03:43;1.85;;;1.20;;
26223;SDS011;14820;48.682;8.890;2022-09-09T06:06:11;1.73;;;1.15;;
26223;SDS011;14820;48.682;8.890;2022-09-09T06:08:42;3.67;;;1.23;;
26223;SDS011;14820;48.682;8.890;2022-09-09T06:11:19;5.15;;;1.38;;
26223;SDS011;14820;48.682;8.890;2022-09-09T06:13:47;3.20;;;1.10;;
26223;SDS011;14820;48.682;8.890;2022-09-09T06:16:14;2.40;;;1.20;;
26223;SDS011;14820;48.682;8.890;2022-09-09T06:18:42;2.75;;;1.10;;
26223;SDS011;14820;48.682;8.890;2022-09-09T06:21:15;3.22;;;1.20;;
26223;SDS011;14820;48.682;8.890;2022-09-09T06:23:41;3.10;;;1.27;;
26223;SDS011;14820;48.682;8.890;2022-09-09T06:26:09;1.88;;;0.95;;
26223;SDS011;14820;48.682;8.890;2022-09-09T06:28:41;3.05;;;1.30;;
26223;SDS011;14820;48.682;8.890;2022-09-09T06:31:09;5.20;;;1.05;;
26223;SDS011;14820;48.682;8.890;2022-09-09T06:33:36;8.13;;;1.10;;
26223;SDS011;14820;48.682;8.890;2022-09-09T06:36:06;2.80;;;1.10;;
26223;SDS011;14820;48.682;8.890;2022-09-09T06:38:37;3.92;;;1.10;;
26223;SDS011;14820;48.682;8.890;2022-09-09T06:41:03;3.25;;;1.33;;
26223;SDS011;14820;48.682;8.890;2022-09-09T06:43:30;4.30;;;1.20;;
26223;SDS011;14820;48.682;8.890;2022-09-09T06:45:57;2.17;;;1.00;;
26223;SDS011;14820;48.682;8.890;2022-09-09T06:48:24;3.78;;;1.17;;
26223;SDS011;14820;48.682;8.890;2022-09-09T06:50:51;5.43;;;1.40;;
26223;SDS011;14820;48.682;8.890;2022-09-09T06:53:38;6.47;;;1.15;;
26223;SDS011;14820;48.682;8.890;2022-09-09T06:56:22;4.22;;;1.42;;
26223;SDS011;14820;48.682;8.890;2022-09-09T06:58:50;4.88;;;1.17;;
26223;SDS011;14820;48.682;8.890;2022-09-09T07:01:21;2.88;;;1.20;;
26223;SDS011;14820;48.682;8.890;2022-09-09T07:03:49;2.50;;;1.15;;
26223;SDS011;14820;48.682;8.890;2022-09-09T07:08:50;4.40;;;1.17;;
26223;SDS011;14820;48.682;8.890;2022-09-09T07:11:20;3.80;;;1.35;;
26223;SDS011;14820;48.682;8.890;2022-09-09T07:13:48;5.70;;;0.90;;
26223;SDS011;14820;48.682;8.890;2022-09-09T07:16:15;1.52;;;1.00;;
26223;SDS011;14820;48.682;8.890;2022-09-09T07:18:43;5.57;;;1.40;;
26223;SDS011;14820;48.682;8.890;2022-09-09T07:21:10;2.70;;;1.20;;
26223;SDS011;14820;48.682;8.890;2022-09-09T07:23:37;3.72;;;1.30;;
26223;SDS011;14820;48.682;8.890;2022-09-09T07:26:10;4.45;;;1.30;;
26223;SDS011;14820;48.682;8.890;2022-09-09T07:28:37;3.53;;;1.30;;
26223;SDS011;14820;48.682;8.890;2022-09-09T07:31:03;3.58;;;1.20;;
26223;SDS011;14820;48.682;8.890;2022-09-09T07:33:31;2.88;;;1.20;;
26223;SDS011;14820;48.682;8.890;2022-09-09T07:38:45;6.15;;;1.40;;
26223;SDS011;14820;48.682;8.890;2022-09-09T07:41:14;2.38;;;1.10;;
26223;SDS011;14820;48.682;8.890;2022-09-09T07:43:42;3.70;;;1.20;;
26223;SDS011;14820;48.682;8.890;2022-09-09T07:46:10;3.80;;;1.05;;
26223;SDS011;14820;48.682;8.890;2022-09-09T07:48:37;2.60;;;0.90;;
26223;SDS011;14820;48.682;8.890;2022-09-09T07:51:05;5.82;;;1.02;;
26223;SDS011;14820;48.682;8.890;2022-09-09T07:53:37;5.00;;;1.30;;
26223;SDS011;14820;48.682;8.890;2022-09-09T07:56:04;5.18;;;1.25;;
26223;SDS011;14820;48.682;8.890;2022-09-09T07:58:31;2.90;;;1.10;;
26223;SDS011;14820;48.682;8.890;2022-09-09T08:00:57;4.65;;;1.45;;
26223;SDS011;14820;48.682;8.890;2022-09-09T08:03:22;3.97;;;1.27;;
26223;SDS011;14820;48.682;8.890;2022-09-09T08:05:48;1.85;;;0.93;;
26223;SDS011;14820;48.682;8.890;2022-09-09T08:08:17;7.15;;;1.20;;
26223;SDS011;14820;48.682;8.890;2022-09-09T08:10:44;4.00;;;1.15;;
26223;SDS011;14820;48.682;8.890;2022-09-09T08:13:10;7.10;;;1.30;;
26223;SDS011;14820;48.682;8.890;2022-09-09T08:15:36;4.35;;;1.10;;
26223;SDS011;14820;48.682;8.890;2022-09-09T08:18:01;3.47;;;1.17;;
26223;SDS011;14820;48.682;8.890;2022-09-09T08:20:29;2.90;;;0.98;;
26223;SDS011;14820;48.682;8.890;2022-09-09T08:22:58;4.75;;;1.60;;
26223;SDS011;14820;48.682;8.890;2022-09-09T08:25:24;4.95;;;1.10;;
26223;SDS011;14820;48.682;8.890;2022-09-09T08:27:49;7.22;;;1.42;;
26223;SDS011;14820;48.682;8.890;2022-09-09T08:30:15;3.25;;;1.25;;
26223;SDS011;14820;48.682;8.890;2022-09-09T08:32:44;6.18;;;1.10;;
26223;SDS011;14820;48.682;8.890;2022-09-09T08:35:10;3.15;;;1.20;;
26223;SDS011;14820;48.682;8.890;2022-09-09T08:37:36;6.93;;;1.13;;
26223;SDS011;14820;48.682;8.890;2022-09-09T08:40:02;4.05;;;1.15;;
26223;SDS011;14820;48.682;8.890;2022-09-09T08:42:30;4.85;;;1.65;;
26223;SDS011;14820;48.682;8.890;2022-09-09T08:45:14;3.97;;;1.40;;
26223;SDS011;14820;48.682;8.890;2022-09-09T08:47:51;3.65;;;1.23;;
26223;SDS011;14820;48.682;8.890;2022-09-09T08:55:52;12.32;;;1.48;;
26223;SDS011;14820;48.682;8.890;2022-09-09T08:58:20;3.65;;;0.90;;
26223;SDS011;14820;48.682;8.890;2022-09-09T09:11:56;2.67;;;0.90;;
26223;SDS011;14820;48.682;8.890;2022-09-09T09:14:30;3.80;;;0.70;;
26223;SDS011;14820;48.682;8.890;2022-09-09T09:19:58;2.15;;;0.90;;
26223;SDS011;14820;48.682;8.890;2022-09-09T09:22:26;4.95;;;1.05;;
26223;SDS011;14820;48.682;8.890;2022-09-09T09:28:00;1.10;;;0.68;;
26223;SDS011;14820;48.682;8.890;2022-09-09T09:30:34;1.83;;;0.80;;
26223;SDS011;14820;48.682;8.890;2022-09-09T09:33:14;2.38;;;0.90;;
26223;SDS011;14820;48.682;8.890;2022-09-09T09:35:44;4.90;;;1.13;;
26223;SDS011;14820;48.682;8.890;2022-09-09T09:40:54;6.72;;;1.40;;
26223;SDS011;14820;48.682;8.890;2022-09-09T09:45:56;2.72;;;1.10;;
26223;SDS011;14820;48.682;8.890;2022-09-09T09:48:25;3.67;;;1.10;;
26223;SDS011;14820;48.682;8.890;2022-09-09T09:50:53;2.97;;;1.17;;
26223;SDS011;14820;48.682;8.890;2022-09-09T09:55:56;3.33;;;1.13;;
26223;SDS011;14820;48.682;8.890;2022-09-09T09:58:25;5.75;;;1.05;;
26223;SDS011;14820;48.682;8.890;2022-09-09T10:00:53;2.03;;;0.90;;
26223;SDS011;14820;48.682;8.890;2022-09-09T10:03:24;5.22;;;1.10;;
26223;SDS011;14820;48.682;8.890;2022-09-09T10:05:54;2.08;;;1.00;;
26223;SDS011;14820;48.682;8.890;2022-09-09T10:08:22;4.25;;;1.27;;
26223;SDS011;14820;48.682;8.890;2022-09-09T10:18:45;3.95;;;1.10;;
26223;SDS011;14820;48.682;8.890;2022-09-09T10:38:12;4.03;;;1.10;;
26223;SDS011;14820;48.682;8.890;2022-09-09T10:40:46;5.32;;;1.20;;
26223;SDS011;14820;48.682;8.890;2022-09-09T10:46:24;2.20;;;0.88;;
26223;SDS011;14820;48.682;8.890;2022-09-09T10:51:45;7.93;;;1.02;;
26223;SDS011;14820;48.682;8.890;2022-09-09T10:57:03;3.13;;;0.80;;
26223;SDS011;14820;48.682;8.890;2022-09-09T10:59:51;2.28;;;0.82;;
26223;SDS011;14820;48.682;8.890;2022-09-09T11:04:49;5.82;;;1.00;;
26223;SDS011;14820;48.682;8.890;2022-09-09T11:07:37;3.83;;;0.70;;
26223;SDS011;14820;48.682;8.890;2022-09-09T11:10:21;2.78;;;0.60;;
26223;SDS011;14820;48.682;8.890;2022-09-09T11:12:49;1.55;;;0.80;;
26223;SDS011;14820;48.682;8.890;2022-09-09T11:15:23;1.92;;;0.60;;
26223;SDS011;14820;48.682;8.890;2022-09-09T11:18:02;2.40;;;0.68;;
26223;SDS011;14820;48.682;8.890;2022-09-09T11:20:31;2.03;;;0.57;;
26223;SDS011;14820;48.682;8.890;2022-09-09T11:23:17;1.67;;;0.57;;
26223;SDS011;14820;48.682;8.890;2022-09-09T11:26:06;1.85;;;0.50;;
26223;SDS011;14820;48.682;8.890;2022-09-09T11:42:28;2.42;;;0.50;;
26223;SDS011;14820;48.682;8.890;2022-09-09T11:44:54;2.40;;;0.60;;
26223;SDS011;14820;48.682;8.890;2022-09-09T11:47:28;0.65;;;0.45;;
26223;SDS011;14820;48.682;8.890;2022-09-09T11:52:41;1.27;;;0.50;;
26223;SDS011;14820;48.682;8.890;2022-09-09T12:08:39;1.55;;;0.52;;
26223;SDS011;14820;48.682;8.890;2022-09-09T12:11:08;1.83;;;0.60;;
26223;SDS011;14820;48.682;8.890;2022-09-09T12:13:36;4.43;;;0.80;;
26223;SDS011;14820;48.682;8.890;2022-09-09T12:16:02;1.77;;;0.50;;
26223;SDS011;14820;48.682;8.890;2022-09-09T12:18:34;1.52;;;0.80;;
26223;SDS011;14820;48.682;8.890;2022-09-09T12:21:16;1.45;;;0.65;;
26223;SDS011;14820;48.682;8.890;2022-09-09T12:24:07;1.38;;;0.70;;
26223;SDS011;14820;48.682;8.890;2022-09-09T12:26:41;2.22;;;0.70;;
26223;SDS011;14820;48.682;8.890;2022-09-09T12:32:04;3.88;;;0.80;;
26223;SDS011;14820;48.682;8.890;2022-09-09T12:37:24;0.80;;;0.60;;
26223;SDS011;14820;48.682;8.890;2022-09-09T12:39:57;2.15;;;0.60;;
26223;SDS011;14820;48.682;8.890;2022-09-09T12:42:47;1.85;;;0.80;;
26223;SDS011;14820;48.682;8.890;2022-09-09T12:45:20;2.30;;;0.70;;
26223;SDS011;14820;48.682;8.890;2022-09-09T12:47:49;1.65;;;0.70;;
26223;SDS011;14820;48.682;8.890;2022-09-09T12:52:47;2.13;;;1.05;;
26223;SDS011;14820;48.682;8.890;2022-09-09T12:55:19;3.67;;;0.80;;
26223;SDS011;14820;48.682;8.890;2022-09-09T12:57:55;1.85;;;0.70;;
26223;SDS011;14820;48.682;8.890;2022-09-09T13:00:23;1.20;;;0.55;;
26223;SDS011;14820;48.682;8.890;2022-09-09T13:02:56;1.42;;;0.60;;
26223;SDS011;14820;48.682;8.890;2022-09-09T13:08:03;3.88;;;0.70;;
26223;SDS011;14820;48.682;8.890;2022-09-09T13:10:34;5.38;;;1.10;;
26223;SDS011;14820;48.682;8.890;2022-09-09T13:13:04;6.28;;;0.70;;
26223;SDS011;14820;48.682;8.890;2022-09-09T13:15:38;2.80;;;0.47;;
26223;SDS011;14820;48.682;8.890;2022-09-09T13:18:05;0.93;;;0.63;;
26223;SDS011;14820;48.682;8.890;2022-09-09T13:20:36;2.75;;;0.60;;
26223;SDS011;14820;48.682;8.890;2022-09-09T13:23:02;4.30;;;0.88;;
26223;SDS011;14820;48.682;8.890;2022-09-09T13:25:28;3.70;;;0.65;;
26223;SDS011;14820;48.682;8.890;2022-09-09T13:27:58;1.98;;;0.70;;
26223;SDS011;14820;48.682;8.890;2022-09-09T13:30:29;2.22;;;0.70;;
26223;SDS011;14820;48.682;8.890;2022-09-09T13:35:55;4.65;;;0.70;;
26223;SDS011;14820;48.682;8.890;2022-09-09T13:38:22;2.55;;;0.70;;
26223;SDS011;14820;48.682;8.890;2022-09-09T13:40:57;1.90;;;0.60;;
26223;SDS011;14820;48.682;8.890;2022-09-09T13:43:26;3.33;;;1.00;;
26223;SDS011;14820;48.682;8.890;2022-09-09T13:45:54;1.45;;;0.60;;
26223;SDS011;14820;48.682;8.890;2022-09-09T13:48:21;3.92;;;0.75;;
26223;SDS011;14820;48.682;8.890;2022-09-09T13:50:55;1.17;;;0.60;;
26223;SDS011;14820;48.682;8.890;2022-09-09T13:53:30;3.25;;;1.00;;
26223;SDS011;14820;48.682;8.890;2022-09-09T13:55:56;2.47;;;0.70;;
26223;SDS011;14820;48.682;8.890;2022-09-09T13:58:23;1.50;;;0.70;;
26223;SDS011;14820;48.682;8.890;2022-09-09T14:00:50;1.17;;;0.60;;
26223;SDS011;14820;48.682;8.890;2022-09-09T14:03:19;1.25;;;0.60;;
26223;SDS011;14820;48.682;8.890;2022-09-09T14:05:45;6.20;;;0.73;;
26223;SDS011;14820;48.682;8.890;2022-09-09T14:08:15;1.58;;;0.63;;
26223;SDS011;14820;48.682;8.890;2022-09-09T14:10:46;4.43;;;0.80;;
26223;SDS011;14820;48.682;8.890;2022-09-09T14:13:12;0.25;;;0.25;;
26223;SDS011;14820;48.682;8.890;2022-09-09T14:15:38;1.58;;;0.60;;
26223;SDS011;14820;48.682;8.890;2022-09-09T14:18:04;2.30;;;0.70;;
26223;SDS011;14820;48.682;8.890;2022-09-09T14:20:32;2.13;;;0.75;;
26223;SDS011;14820;48.682;8.890;2022-09-09T14:22:58;2.22;;;0.50;;
26223;SDS011;14820;48.682;8.890;2022-09-09T14:25:24;2.63;;;0.70;;
26223;SDS011;14820;48.682;8.890;2022-09-09T14:27:49;1.95;;;0.70;;
26223;SDS011;14820;48.682;8.890;2022-09-09T14:30:16;3.08;;;0.70;;
26223;SDS011;14820;48.682;8.890;2022-09-09T14:32:45;2.08;;;0.70;;
26223;SDS011;14820;48.682;8.890;2022-09-09T14:35:11;2.60;;;0.70;;
26223;SDS011;14820;48.682;8.890;2022-09-09T14:37:37;1.88;;;0.52;;
26223;SDS011;14820;48.682;8.890;2022-09-09T14:40:04;0.95;;;0.50;;
26223;SDS011;14820;48.682;8.890;2022-09-09T14:42:30;1.05;;;0.50;;
26223;SDS011;14820;48.682;8.890;2022-09-09T14:44:56;0.77;;;0.50;;
26223;SDS011;14820;48.682;8.890;2022-09-09T14:47:21;3.72;;;0.70;;
26223;SDS011;14820;48.682;8.890;2022-09-09T14:49:47;2.33;;;0.70;;
26223;SDS011;14820;48.682;8.890;2022-09-09T14:52:14;2.58;;;0.80;;
26223;SDS011;14820;48.682;8.890;2022-09-09T14:54:41;2.00;;;0.75;;
26223;SDS011;14820;48.682;8.890;2022-09-09T14:57:06;2.53;;;0.70;;
26223;SDS011;14820;48.682;8.890;2022-09-09T14:59:32;2.47;;;0.65;;
26223;SDS011;14820;48.682;8.890;2022-09-09T15:01:59;2.55;;;0.68;;
26223;SDS011;14820;48.682;8.890;2022-09-09T15:04:28;2.70;;;0.80;;
26223;SDS011;14820;48.682;8.890;2022-09-09T15:06:54;1.52;;;0.70;;
26223;SDS011;14820;48.682;8.890;2022-09-09T15:09:20;2.25;;;0.80;;
26223;SDS011;14820;48.682;8.890;2022-09-09T15:11:46;4.30;;;0.80;;
26223;SDS011;14820;48.682;8.890;2022-09-09T15:14:11;1.73;;;0.57;;
26223;SDS011;14820;48.682;8.890;2022-09-09T15:16:38;2.97;;;1.05;;
26223;SDS011;14820;48.682;8.890;2022-09-09T15:19:04;1.45;;;0.75;;
26223;SDS011;14820;48.682;8.890;2022-09-09T15:21:31;4.20;;;0.90;;
26223;SDS011;14820;48.682;8.890;2022-09-09T15:24:01;2.40;;;0.77;;
26223;SDS011;14820;48.682;8.890;2022-09-09T15:26:26;2.45;;;0.77;;
26223;SDS011;14820;48.682;8.890;2022-09-09T15:28:54;2.97;;;0.68;;
26223;SDS011;14820;48.682;8.890;2022-09-09T15:31:26;1.48;;;0.63;;
26223;SDS011;14820;48.682;8.890;2022-09-09T15:33:54;1.02;;;0.70;;
26223;SDS011;14820;48.682;8.890;2022-09-09T15:38:58;4.55;;;0.70;;
26223;SDS011;14820;48.682;8.890;2022-09-09T15:41:24;1.65;;;0.47;;
26223;SDS011;14820;48.682;8.890;2022-09-09T15:43:54;2.80;;;0.90;;
26223;SDS011;14820;48.682;8.890;2022-09-09T15:46:40;3.88;;;0.80;;
26223;SDS011;14820;48.682;8.890;2022-09-09T15:49:09;1.58;;;0.70;;
26223;SDS011;14820;48.682;8.890;2022-09-09T15:51:43;0.95;;;0.50;;
26223;SDS011;14820;48.682;8.890;2022-09-09T15:54:14;2.70;;;0.77;;
26223;SDS011;14820;48.682;8.890;2022-09-09T15:56:42;2.45;;;0.60;;
26223;SDS011;14820;48.682;8.890;2022-09-09T15:59:11;2.70;;;0.73;;
26223;SDS011;14820;48.682;8.890;2022-09-09T16:01:37;1.75;;;0.68;;
26223;SDS011;14820;48.682;8.890;2022-09-09T16:04:04;1.92;;;0.60;;
26223;SDS011;14820;48.682;8.890;2022-09-09T16:06:31;2.60;;;0.70;;
26223;SDS011;14820;48.682;8.890;2022-09-09T16:08:58;2.45;;;0.50;;
26223;SDS011;14820;48.682;8.890;2022-09-09T16:11:27;0.77;;;0.47;;
26223;SDS011;14820;48.682;8.890;2022-09-09T16:13:56;2.05;;;0.90;;
26223;SDS011;14820;48.682;8.890;2022-09-09T16:16:23;1.42;;;0.60;;
26223;SDS011;14820;48.682;8.890;2022-09-09T16:18:54;1.77;;;0.60;;
26223;SDS011;14820;48.682;8.890;2022-09-09T16:21:25;3.63;;;0.80;;
26223;SDS011;14820;48.682;8.890;2022-09-09T16:23:55;1.23;;;0.55;;
26223;SDS011;14820;48.682;8.890;2022-09-09T16:26:24;1.13;;;0.55;;
26223;SDS011;14820;48.682;8.890;2022-09-09T16:28:50;1.65;;;0.50;;
26223;SDS011;14820;48.682;8.890;2022-09-09T16:31:17;0.43;;;0.30;;
26223;SDS011;14820;48.682;8.890;2022-09-09T16:33:44;1.00;;;0.40;;
26223;SDS011;14820;48.682;8.890;2022-09-09T16:36:12;0.30;;;0.30;;
26223;SDS011;14820;48.682;8.890;2022-09-09T16:38:39;2.78;;;0.40;;
26223;SDS011;14820;48.682;8.890;2022-09-09T16:41:06;0.77;;;0.30;;
26223;SDS011;14820;48.682;8.890;2022-09-09T16:43:34;0.65;;;0.40;;
26223;SDS011;14820;48.682;8.890;2022-09-09T16:46:01;0.65;;;0.32;;
26223;SDS011;14820;48.682;8.890;2022-09-09T16:48:31;0.38;;;0.35;;
26223;SDS011;14820;48.682;8.890;2022-09-09T16:51:05;1.30;;;0.40;;
26223;SDS011;14820;48.682;8.890;2022-09-09T16:53:33;0.57;;;0.35;;
26223;SDS011;14820;48.682;8.890;2022-09-09T16:56:06;0.80;;;0.40;;
26223;SDS011;14820;48.682;8.890;2022-09-09T16:58:33;0.57;;;0.30;;
26223;SDS011;14820;48.682;8.890;2022-09-09T17:01:02;3.33;;;0.60;;
26223;SDS011;14820;48.682;8.890;2022-09-09T17:03:28;1.90;;;0.55;;
26223;SDS011;14820;48.682;8.890;2022-09-09T17:05:55;1.50;;;0.40;;
26223;SDS011;14820;48.682;8.890;2022-09-09T17:08:23;1.30;;;0.50;;
26223;SDS011;14820;48.682;8.890;2022-09-09T17:10:49;1.40;;;0.60;;
26223;SDS011;14820;48.682;8.890;2022-09-09T17:13:15;0.85;;;0.47;;
26223;SDS011;14820;48.682;8.890;2022-09-09T17:15:44;3.33;;;0.50;;
26223;SDS011;14820;48.682;8.890;2022-09-09T17:18:10;1.35;;;0.57;;
26223;SDS011;14820;48.682;8.890;2022-09-09T17:20:40;0.82;;;0.40;;
26223;SDS011;14820;48.682;8.890;2022-09-09T17:23:07;1.90;;;0.80;;
26223;SDS011;14820;48.682;8.890;2022-09-09T17:25:34;1.17;;;0.55;;
26223;SDS011;14820;48.682;8.890;2022-09-09T17:28:01;0.88;;;0.50;;
26223;SDS011;14820;48.682;8.890;2022-09-09T17:30:34;1.40;;;0.60;;
26223;SDS011;14820;48.682;8.890;2022-09-09T17:33:01;1.30;;;0.60;;
26223;SDS011;14820;48.682;8.890;2022-09-09T17:35:30;1.25;;;0.45;;
26223;SDS011;14820;48.682;8.890;2022-09-09T17:37:56;1.00;;;0.50;;
26223;SDS011;14820;48.682;8.890;2022-09-09T17:40:22;0.98;;;0.68;;
26223;SDS011;14820;48.682;8.890;2022-09-09T17:42:48;2.33;;;0.50;;
26223;SDS011;14820;48.682;8.890;2022-09-09T17:45:14;2.20;;;0.65;;
26223;SDS011;14820;48.682;8.890;2022-09-09T17:47:40;1.83;;;0.70;;
26223;SDS011;14820;48.682;8.890;2022-09-09T17:50:08;1.70;;;0.50;;
26223;SDS011;14820;48.682;8.890;2022-09-09T17:52:35;3.95;;;0.90;;
26223;SDS011;14820;48.682;8.890;2022-09-09T17:55:02;1.23;;;0.70;;